Time,TemperatureF,DewpointF,PressureIn,WindDirection,WindDirectionDegrees,WindSpeedMPH,WindSpeedGustMPH,Humidity,HourlyPrecipIn,Conditions,Clouds,dailyrainin,SoftwareType,DateUTC
2013-03-30 00:00:00,28.9,23.5,30.16,East,90,0.0,0.0,80,0.00,,,0.00,WUHU21623XXSP,2013-03-30 05:00:00,
2013-03-30 00:05:00,28.9,23.2,30.16,NE,45,0.0,0.0,79,0.00,,,0.00,WUHU21623XXSP,2013-03-30 05:05:00,
2013-03-30 00:10:00,28.9,23.5,30.17,NE,45,0.0,0.0,80,0.00,,,0.00,WUHU21623XXSP,2013-03-30 05:10:00,
2013-03-30 00:15:00,28.9,23.5,30.16,NE,45,0.0,0.0,80,0.00,,,0.00,WUHU21623XXSP,2013-03-30 05:15:00,
2013-03-30 00:20:00,28.9,23.5,30.18,NE,45,0.0,0.0,80,0.00,,,0.00,WUHU21623XXSP,2013-03-30 05:20:00,
2013-03-30 00:25:00,29.1,23.7,30.17,NE,45,0.0,0.0,80,0.00,,,0.00,WUHU21623XXSP,2013-03-30 05:25:00,
2013-03-30 00:30:00,29.5,23.9,30.17,NE,45,0.0,0.0,80,0.00,,,0.00,WUHU21623XXSP,2013-03-30 05:30:00,
2013-03-30 00:35:00,29.7,24.3,30.17,ESE,112,0.0,0.0,80,0.00,,,0.00,WUHU21623XXSP,2013-03-30 05:35:00,
2013-03-30 00:40:00,29.7,24.3,30.18,ESE,112,0.0,0.0,80,0.00,,,0.00,WUHU21623XXSP,2013-03-30 05:40:00,
2013-03-30 00:45:00,29.5,24.1,30.17,ESE,112,0.0,0.0,80,0.00,,,0.00,WUHU21623XXSP,2013-03-30 05:45:00,
2013-03-30 00:50:00,29.3,23.9,30.18,ESE,112,0.0,0.0,80,0.00,,,0.00,WUHU21623XXSP,2013-03-30 05:50:00,
2013-03-30 00:55:00,29.3,23.9,30.18,ESE,112,0.0,0.0,80,0.00,,,0.00,WUHU21623XXSP,2013-03-30 05:55:00,
2013-03-30 01:00:00,29.8,24.4,30.17,ESE,112,0.0,0.0,80,0.00,,,0.00,WUHU21623XXSP,2013-03-30 06:00:00,
2013-03-30 01:05:00,30.7,25.0,30.18,ESE,112,0.0,0.0,79,0.00,,,0.00,WUHU21623XXSP,2013-03-30 06:05:00,
2013-03-30 01:10:00,31.6,25.1,30.17,East,90,0.0,0.0,78,0.00,,,0.00,WUHU21623XXSP,2013-03-30 06:10:00,
2013-03-30 01:15:00,31.6,25.6,30.17,South,180,0.0,0.0,77,0.00,,,0.00,WUHU21623XXSP,2013-03-30 06:15:00,
2013-03-30 01:20:00,31.6,25.3,30.17,NE,45,0.0,0.0,77,0.00,,,0.00,WUHU21623XXSP,2013-03-30 06:20:00,
2013-03-30 01:25:00,31.6,24.9,30.17,NE,45,0.0,0.0,76,0.00,,,0.00,WUHU21623XXSP,2013-03-30 06:25:00,
2013-03-30 01:30:00,31.6,24.9,30.17,NE,45,0.0,0.0,76,0.00,,,0.00,WUHU21623XXSP,2013-03-30 06:30:00,
2013-03-30 01:35:00,31.8,25.1,30.17,SSE,157,0.0,0.0,76,0.00,,,0.00,WUHU21623XXSP,2013-03-30 06:35:00,
2013-03-30 01:40:00,32.5,25.5,30.17,SSE,157,0.0,0.0,75,0.00,,,0.00,WUHU21623XXSP,2013-03-30 06:40:00,
2013-03-30 01:45:00,32.7,25.6,30.17,ESE,112,0.0,0.0,75,0.00,,,0.00,WUHU21623XXSP,2013-03-30 06:45:00,
2013-03-30 01:50:00,33.4,26.0,30.16,ENE,67,0.0,0.0,74,0.00,,,0.00,WUHU21623XXSP,2013-03-30 06:50:00,
2013-03-30 01:55:00,33.6,26.1,30.16,East,90,0.0,0.0,73,0.00,,,0.00,WUHU21623XXSP,2013-03-30 06:55:00,
2013-03-30 02:00:00,33.4,25.6,30.17,ESE,112,0.0,0.0,73,0.00,,,0.00,WUHU21623XXSP,2013-03-30 07:00:00,
2013-03-30 02:05:00,33.1,25.3,30.16,ESE,112,0.0,0.0,73,0.00,,,0.00,WUHU21623XXSP,2013-03-30 07:05:00,
2013-03-30 02:10:00,33.1,25.3,30.16,ESE,112,0.0,0.0,73,0.00,,,0.00,WUHU21623XXSP,2013-03-30 07:10:00,
2013-03-30 02:15:00,33.1,25.3,30.16,ESE,112,0.0,0.0,73,0.00,,,0.00,WUHU21623XXSP,2013-03-30 07:15:00,
2013-03-30 02:20:00,33.1,25.6,30.16,East,90,0.0,0.0,74,0.00,,,0.00,WUHU21623XXSP,2013-03-30 07:20:00,
2013-03-30 02:25:00,33.1,25.6,30.16,ESE,112,0.0,0.0,74,0.00,,,0.00,WUHU21623XXSP,2013-03-30 07:25:00,
2013-03-30 02:30:00,32.9,25.1,30.15,ESE,112,0.0,0.0,73,0.00,,,0.00,WUHU21623XXSP,2013-03-30 07:30:00,
2013-03-30 02:35:00,32.4,25.0,30.15,East,90,0.0,0.0,74,0.00,,,0.00,WUHU21623XXSP,2013-03-30 07:35:00,
2013-03-30 02:40:00,32.2,24.8,30.15,East,90,0.0,0.0,74,0.00,,,0.00,WUHU21623XXSP,2013-03-30 07:40:00,
2013-03-30 02:45:00,32.2,25.1,30.14,East,90,0.0,0.0,75,0.00,,,0.00,WUHU21623XXSP,2013-03-30 07:45:00,
2013-03-30 02:50:00,32.5,25.5,30.14,South,180,0.0,2.0,75,0.00,,,0.00,WUHU21623XXSP,2013-03-30 07:50:00,
2013-03-30 02:55:00,32.7,25.6,30.14,SE,135,0.0,2.0,75,0.00,,,0.00,WUHU21623XXSP,2013-03-30 07:55:00,
2013-03-30 03:00:00,32.7,25.6,30.14,South,180,0.0,0.0,75,0.00,,,0.00,WUHU21623XXSP,2013-03-30 08:00:00,
2013-03-30 03:05:00,32.7,25.6,30.13,East,90,0.0,0.0,75,0.00,,,0.00,WUHU21623XXSP,2013-03-30 08:05:00,
2013-03-30 03:10:00,32.4,25.3,30.14,East,90,0.0,0.0,75,0.00,,,0.00,WUHU21623XXSP,2013-03-30 08:10:00,
2013-03-30 03:15:00,32.4,25.6,30.14,SE,135,0.0,0.0,76,0.00,,,0.00,WUHU21623XXSP,2013-03-30 08:15:00,
2013-03-30 03:20:00,32.4,25.6,30.13,ESE,112,0.0,0.0,76,0.00,,,0.00,WUHU21623XXSP,2013-03-30 08:20:00,
2013-03-30 03:25:00,32.4,25.3,30.13,ESE,112,0.0,0.0,75,0.00,,,0.00,WUHU21623XXSP,2013-03-30 08:25:00,
2013-03-30 03:30:00,32.4,25.3,30.13,East,90,0.0,0.0,76,0.00,,,0.00,WUHU21623XXSP,2013-03-30 08:30:00,
2013-03-30 03:35:00,32.4,25.3,30.13,ESE,112,0.0,0.0,75,0.00,,,0.00,WUHU21623XXSP,2013-03-30 08:35:00,
2013-03-30 03:40:00,32.2,25.1,30.13,ESE,112,0.0,0.0,75,0.00,,,0.00,WUHU21623XXSP,2013-03-30 08:40:00,
2013-03-30 03:45:00,32.4,25.3,30.12,ESE,112,0.0,0.0,75,0.00,,,0.00,WUHU21623XXSP,2013-03-30 08:45:00,
2013-03-30 03:50:00,32.2,25.1,30.12,ENE,67,0.0,0.0,75,0.00,,,0.00,WUHU21623XXSP,2013-03-30 08:50:00,
2013-03-30 03:55:00,32.2,25.1,30.12,ENE,67,0.0,0.0,75,0.00,,,0.00,WUHU21623XXSP,2013-03-30 08:55:00,
2013-03-30 04:00:00,32.2,25.1,30.12,NE,45,0.0,0.0,75,0.00,,,0.00,WUHU21623XXSP,2013-03-30 09:00:00,
2013-03-30 04:05:00,32.2,25.1,30.12,NE,45,0.0,0.0,75,0.00,,,0.00,WUHU21623XXSP,2013-03-30 09:05:00,
2013-03-30 04:10:00,32.0,25.0,30.12,NE,45,0.0,0.0,75,0.00,,,0.00,WUHU21623XXSP,2013-03-30 09:10:00,
2013-03-30 04:15:00,32.2,25.1,30.12,NE,45,0.0,0.0,75,0.00,,,0.00,WUHU21623XXSP,2013-03-30 09:15:00,
2013-03-30 04:20:00,32.2,25.1,30.12,ENE,67,0.0,0.0,75,0.00,,,0.00,WUHU21623XXSP,2013-03-30 09:20:00,
2013-03-30 04:25:00,32.2,25.1,30.13,ENE,67,0.0,0.0,75,0.00,,,0.00,WUHU21623XXSP,2013-03-30 09:25:00,
2013-03-30 04:30:00,31.8,24.8,30.13,ENE,67,0.0,0.0,75,0.00,,,0.00,WUHU21623XXSP,2013-03-30 09:30:00,
2013-03-30 04:34:00,31.8,24.8,30.13,NE,45,0.0,0.0,75,0.00,,,0.00,WUHU21623XXSP,2013-03-30 09:34:00,
2013-03-30 04:39:00,31.6,24.6,30.12,NE,45,0.0,0.0,75,0.00,,,0.00,WUHU21623XXSP,2013-03-30 09:39:00,
2013-03-30 04:44:00,30.7,23.9,30.12,East,90,0.0,0.0,75,0.00,,,0.00,WUHU21623XXSP,2013-03-30 09:44:00,
2013-03-30 04:49:00,30.4,23.5,30.12,ENE,67,0.0,0.0,76,0.00,,,0.00,WUHU21623XXSP,2013-03-30 09:49:00,
2013-03-30 04:54:00,30.0,23.3,30.12,NE,45,0.0,0.0,76,0.00,,,0.00,WUHU21623XXSP,2013-03-30 09:54:00,
2013-03-30 04:59:00,30.0,23.6,30.12,ENE,67,0.0,0.0,77,0.00,,,0.00,WUHU21623XXSP,2013-03-30 09:59:00,
2013-03-30 05:04:00,30.0,24.0,30.11,ENE,67,0.0,0.0,78,0.00,,,0.00,WUHU21623XXSP,2013-03-30 10:04:00,
2013-03-30 05:09:00,30.0,24.0,30.11,ENE,67,0.0,0.0,78,0.00,,,0.00,WUHU21623XXSP,2013-03-30 10:09:00,
2013-03-30 05:14:00,30.4,24.0,30.11,NE,45,0.0,0.0,77,0.00,,,0.00,WUHU21623XXSP,2013-03-30 10:14:00,
2013-03-30 05:19:00,30.7,24.4,30.11,ENE,67,0.0,0.0,77,0.00,,,0.00,WUHU21623XXSP,2013-03-30 10:19:00,
2013-03-30 05:24:00,30.9,24.4,30.10,ENE,67,0.0,0.0,77,0.00,,,0.00,WUHU21623XXSP,2013-03-30 10:24:00,
2013-03-30 05:29:00,30.7,24.4,30.10,ENE,67,0.0,0.0,77,0.00,,,0.00,WUHU21623XXSP,2013-03-30 10:29:00,
2013-03-30 05:34:00,30.7,24.4,30.10,ENE,67,0.0,0.0,77,0.00,,,0.00,WUHU21623XXSP,2013-03-30 10:34:00,
2013-03-30 05:39:00,30.7,24.4,30.10,East,90,0.0,0.0,77,0.00,,,0.00,WUHU21623XXSP,2013-03-30 10:39:00,
2013-03-30 05:44:00,30.7,24.4,30.10,NE,45,0.0,0.0,77,0.00,,,0.00,WUHU21623XXSP,2013-03-30 10:44:00,
2013-03-30 05:49:00,30.9,24.5,30.09,NNE,22,0.0,0.0,77,0.00,,,0.00,WUHU21623XXSP,2013-03-30 10:49:00,
2013-03-30 05:54:00,30.9,24.5,30.09,ENE,67,0.0,0.0,77,0.00,,,0.00,WUHU21623XXSP,2013-03-30 10:54:00,
2013-03-30 05:59:00,31.1,25.1,30.08,NE,45,0.0,0.0,78,0.00,,,0.00,WUHU21623XXSP,2013-03-30 10:59:00,
2013-03-30 06:04:00,31.1,25.1,30.08,ENE,67,0.0,0.0,78,0.00,,,0.00,WUHU21623XXSP,2013-03-30 11:04:00,
2013-03-30 06:09:00,31.3,25.2,30.08,ENE,67,0.0,0.0,78,0.00,,,0.00,WUHU21623XXSP,2013-03-30 11:09:00,
2013-03-30 06:14:00,31.3,25.2,30.08,East,90,0.0,0.0,78,0.00,,,0.00,WUHU21623XXSP,2013-03-30 11:14:00,
2013-03-30 06:19:00,31.3,25.2,30.08,ENE,67,1.6,1.6,78,0.00,,,0.00,WUHU21623XXSP,2013-03-30 11:19:00,
2013-03-30 06:24:00,31.3,25.2,30.08,East,90,2.7,2.7,78,0.00,,,0.00,WUHU21623XXSP,2013-03-30 11:24:00,
2013-03-30 06:29:00,31.6,25.2,30.07,East,90,2.9,2.9,78,0.00,,,0.00,WUHU21623XXSP,2013-03-30 11:29:00,
2013-03-30 06:34:00,31.8,25.4,30.07,ENE,67,0.0,2.9,77,0.00,,,0.00,WUHU21623XXSP,2013-03-30 11:34:00,
2013-03-30 06:39:00,31.8,25.4,30.06,ENE,67,0.0,0.0,77,0.00,,,0.00,WUHU21623XXSP,2013-03-30 11:39:00,
2013-03-30 06:44:00,32.2,25.5,30.06,North,0,0.0,0.0,76,0.00,,,0.00,WUHU21623XXSP,2013-03-30 11:44:00,
2013-03-30 06:49:00,32.4,25.6,30.07,SSE,157,0.0,0.0,76,0.00,,,0.00,WUHU21623XXSP,2013-03-30 11:49:00,
2013-03-30 06:54:00,32.7,25.6,30.06,ESE,112,2.0,2.0,75,0.00,,,0.00,WUHU21623XXSP,2013-03-30 11:54:00,
2013-03-30 06:59:00,33.3,25.5,30.06,East,90,0.0,2.0,73,0.00,,,0.00,WUHU21623XXSP,2013-03-30 11:59:00,
2013-03-30 07:04:00,33.4,25.6,30.06,SE,135,2.0,2.0,73,0.00,,,0.00,WUHU21623XXSP,2013-03-30 12:04:00,
2013-03-30 07:09:00,33.6,25.5,30.06,SE,135,2.0,2.0,72,0.00,,,0.00,WUHU21623XXSP,2013-03-30 12:09:00,
2013-03-30 07:14:00,34.0,25.5,30.06,NNE,22,0.0,2.0,71,0.00,,,0.00,WUHU21623XXSP,2013-03-30 12:14:00,
2013-03-30 07:19:00,34.2,25.7,30.06,ESE,112,0.0,0.0,71,0.00,,,0.00,WUHU21623XXSP,2013-03-30 12:19:00,
2013-03-30 07:24:00,34.3,25.8,30.06,East,90,0.0,0.0,71,0.00,,,0.00,WUHU21623XXSP,2013-03-30 12:24:00,
2013-03-30 07:29:00,34.5,25.7,30.06,NE,45,0.0,0.0,70,0.00,,,0.00,WUHU21623XXSP,2013-03-30 12:29:00,
2013-03-30 07:34:00,34.9,25.7,30.06,SE,135,0.0,0.0,69,0.00,,,0.00,WUHU21623XXSP,2013-03-30 12:34:00,
2013-03-30 07:39:00,35.2,26.1,30.06,ENE,67,0.0,0.0,69,0.00,,,0.00,WUHU21623XXSP,2013-03-30 12:39:00,
2013-03-30 07:44:00,35.4,26.2,30.05,SSE,157,0.0,3.1,69,0.00,,,0.00,WUHU21623XXSP,2013-03-30 12:44:00,
2013-03-30 07:49:00,35.4,25.9,30.05,ENE,67,3.1,3.1,68,0.00,,,0.00,WUHU21623XXSP,2013-03-30 12:49:00,
2013-03-30 07:54:00,35.4,25.9,30.05,ESE,112,2.9,3.1,68,0.00,,,0.00,WUHU21623XXSP,2013-03-30 12:54:00,
2013-03-30 07:59:00,35.4,26.2,30.04,ESE,112,0.0,3.1,69,0.00,,,0.00,WUHU21623XXSP,2013-03-30 12:59:00,
2013-03-30 08:04:00,35.8,26.6,30.04,East,90,0.0,2.9,69,0.00,,,0.00,WUHU21623XXSP,2013-03-30 13:04:00,
2013-03-30 08:09:00,36.0,26.6,30.04,East,90,0.0,2.0,69,0.00,,,0.00,WUHU21623XXSP,2013-03-30 13:09:00,
2013-03-30 08:14:00,36.3,26.6,30.04,ENE,67,0.0,0.0,68,0.00,,,0.00,WUHU21623XXSP,2013-03-30 13:14:00,
2013-03-30 08:19:00,36.3,26.8,30.04,NE,45,0.0,0.0,68,0.00,,,0.00,WUHU21623XXSP,2013-03-30 13:19:00,
2013-03-30 08:24:00,36.7,27.1,30.04,ESE,112,0.0,0.0,68,0.00,,,0.00,WUHU21623XXSP,2013-03-30 13:24:00,
2013-03-30 08:29:00,37.2,27.3,30.04,NNE,22,0.0,0.0,67,0.00,,,0.00,WUHU21623XXSP,2013-03-30 13:29:00,
2013-03-30 08:34:00,37.8,27.8,30.04,NW,315,0.0,0.0,67,0.00,,,0.00,WUHU21623XXSP,2013-03-30 13:34:00,
2013-03-30 08:39:00,37.9,27.9,30.04,SSW,202,0.0,0.0,67,0.00,,,0.00,WUHU21623XXSP,2013-03-30 13:39:00,
2013-03-30 08:44:00,38.7,28.2,30.04,SSE,157,0.0,0.0,66,0.00,,,0.00,WUHU21623XXSP,2013-03-30 13:44:00,
2013-03-30 08:49:00,38.8,28.4,30.04,SSE,157,0.0,0.0,66,0.00,,,0.00,WUHU21623XXSP,2013-03-30 13:49:00,
2013-03-30 08:54:00,39.4,28.9,30.03,SSW,202,0.0,0.0,66,0.00,,,0.00,WUHU21623XXSP,2013-03-30 13:54:00,
2013-03-30 08:59:00,39.9,28.7,30.03,South,180,0.0,0.0,64,0.00,,,0.00,WUHU21623XXSP,2013-03-30 13:59:00,
2013-03-30 09:04:00,40.1,28.8,30.03,South,180,3.6,3.6,64,0.00,,,0.00,WUHU21623XXSP,2013-03-30 14:04:00,
2013-03-30 09:09:00,40.1,28.5,30.03,ESE,112,1.3,4.3,63,0.00,,,0.00,WUHU21623XXSP,2013-03-30 14:09:00,
2013-03-30 09:14:00,40.3,28.6,30.02,SSE,157,2.0,4.3,63,0.00,,,0.00,WUHU21623XXSP,2013-03-30 14:14:00,
2013-03-30 09:19:00,40.1,28.5,30.02,SE,135,0.0,2.0,63,0.00,,,0.00,WUHU21623XXSP,2013-03-30 14:19:00,
2013-03-30 09:24:00,39.9,28.3,30.02,WSW,247,0.0,3.1,63,0.00,,,0.00,WUHU21623XXSP,2013-03-30 14:24:00,
2013-03-30 09:29:00,40.3,29.0,30.02,SSE,157,4.7,6.0,64,0.00,,,0.00,WUHU21623XXSP,2013-03-30 14:29:00,
2013-03-30 09:34:00,40.3,29.0,30.02,South,180,6.5,6.5,64,0.00,,,0.00,WUHU21623XXSP,2013-03-30 14:34:00,
2013-03-30 09:39:00,40.8,29.6,30.02,SSW,202,5.6,6.5,64,0.00,,,0.00,WUHU21623XXSP,2013-03-30 14:39:00,
2013-03-30 09:44:00,41.5,29.8,30.02,SE,135,7.2,7.2,63,0.00,,,0.00,WUHU21623XXSP,2013-03-30 14:44:00,
2013-03-30 09:49:00,41.9,30.2,30.01,SE,135,0.0,7.2,63,0.00,,,0.00,WUHU21623XXSP,2013-03-30 14:49:00,
2013-03-30 09:54:00,42.1,30.3,30.01,SE,135,5.1,5.1,63,0.00,,,0.00,WUHU21623XXSP,2013-03-30 14:54:00,
2013-03-30 09:59:00,41.7,30.0,30.01,ESE,112,4.0,5.1,63,0.00,,,0.00,WUHU21623XXSP,2013-03-30 14:59:00,
2013-03-30 10:04:00,41.7,30.4,30.01,East,90,0.0,4.0,64,0.00,,,0.00,WUHU21623XXSP,2013-03-30 15:04:00,
2013-03-30 10:09:00,41.7,30.4,30.01,ESE,112,0.0,4.7,64,0.00,,,0.00,WUHU21623XXSP,2013-03-30 15:09:00,
2013-03-30 10:14:00,41.9,31.0,30.01,ESE,112,0.0,4.7,65,0.00,,,0.00,WUHU21623XXSP,2013-03-30 15:14:00,
2013-03-30 10:19:00,41.9,31.0,30.01,ESE,112,2.5,3.4,65,0.00,,,0.00,WUHU21623XXSP,2013-03-30 15:19:00,
2013-03-30 10:24:00,42.1,31.1,30.00,South,180,3.8,3.8,65,0.00,,,0.00,WUHU21623XXSP,2013-03-30 15:24:00,
2013-03-30 10:29:00,42.6,31.6,29.99,SSE,157,3.8,8.1,65,0.00,,,0.00,WUHU21623XXSP,2013-03-30 15:29:00,
2013-03-30 10:34:00,42.8,31.8,29.99,South,180,5.4,8.1,65,0.00,,,0.00,WUHU21623XXSP,2013-03-30 15:34:00,
2013-03-30 10:39:00,43.0,32.0,29.99,South,180,3.6,5.4,65,0.00,,,0.00,WUHU21623XXSP,2013-03-30 15:39:00,
2013-03-30 10:44:00,43.3,32.3,29.99,SW,225,3.8,5.4,65,0.00,,,0.00,WUHU21623XXSP,2013-03-30 15:44:00,
2013-03-30 10:49:00,43.7,32.7,29.98,SE,135,4.9,5.4,65,0.00,,,0.00,WUHU21623XXSP,2013-03-30 15:49:00,
2013-03-30 10:54:00,44.2,33.2,29.98,SSW,202,3.8,5.6,65,0.00,,,0.00,WUHU21623XXSP,2013-03-30 15:54:00,
2013-03-30 10:59:00,44.8,33.7,29.98,SE,135,0.0,5.6,65,0.00,,,0.00,WUHU21623XXSP,2013-03-30 15:59:00,
2013-03-30 11:04:00,45.3,34.2,29.98,ESE,112,0.0,2.5,65,0.00,,,0.00,WUHU21623XXSP,2013-03-30 16:04:00,
2013-03-30 11:09:00,46.0,34.5,29.98,South,180,2.2,3.4,64,0.00,,,0.00,WUHU21623XXSP,2013-03-30 16:09:00,
2013-03-30 11:14:00,46.2,34.7,29.98,SW,225,2.5,6.5,64,0.00,,,0.00,WUHU21623XXSP,2013-03-30 16:14:00,
2013-03-30 11:19:00,46.0,34.5,29.98,South,180,9.2,9.2,64,0.00,,,0.00,WUHU21623XXSP,2013-03-30 16:19:00,
2013-03-30 11:24:00,46.0,34.5,29.98,SSW,202,11.0,11.0,64,0.00,,,0.00,WUHU21623XXSP,2013-03-30 16:24:00,
2013-03-30 11:29:00,45.7,34.6,29.97,SSE,157,10.7,11.0,65,0.00,,,0.00,WUHU21623XXSP,2013-03-30 16:29:00,
2013-03-30 11:34:00,45.7,34.6,29.97,WSW,247,5.1,10.7,65,0.00,,,0.00,WUHU21623XXSP,2013-03-30 16:34:00,
2013-03-30 11:39:00,45.5,34.8,29.98,SSW,202,6.0,10.3,66,0.00,,,0.00,WUHU21623XXSP,2013-03-30 16:39:00,
2013-03-30 11:44:00,45.5,34.8,29.98,SW,225,7.6,10.3,66,0.00,,,0.00,WUHU21623XXSP,2013-03-30 16:44:00,
2013-03-30 11:49:00,45.5,34.8,29.97,SSW,202,5.4,7.6,66,0.00,,,0.00,WUHU21623XXSP,2013-03-30 16:49:00,
2013-03-30 11:54:00,46.0,35.3,29.96,South,180,4.7,5.4,66,0.00,,,0.00,WUHU21623XXSP,2013-03-30 16:54:00,
2013-03-30 11:59:00,46.0,35.3,29.96,SSW,202,3.1,4.7,66,0.00,,,0.00,WUHU21623XXSP,2013-03-30 16:59:00,
2013-03-30 12:04:00,46.2,35.5,29.96,SSW,202,8.1,8.1,66,0.00,,,0.00,WUHU21623XXSP,2013-03-30 17:04:00,
2013-03-30 12:09:00,46.6,35.8,29.96,South,180,8.3,11.4,66,0.00,,,0.00,WUHU21623XXSP,2013-03-30 17:09:00,
2013-03-30 12:14:00,47.5,36.6,29.96,SSE,157,4.7,11.4,66,0.00,,,0.00,WUHU21623XXSP,2013-03-30 17:14:00,
2013-03-30 12:19:00,48.0,36.8,29.96,SSW,202,7.2,7.2,65,0.00,,,0.00,WUHU21623XXSP,2013-03-30 17:19:00,
2013-03-30 12:24:00,48.6,36.7,29.96,SW,225,10.5,10.5,64,0.00,,,0.00,WUHU21623XXSP,2013-03-30 17:24:00,
2013-03-30 12:29:00,48.7,36.9,29.95,SW,225,5.1,10.5,64,0.00,,,0.00,WUHU21623XXSP,2013-03-30 17:29:00,
2013-03-30 12:34:00,49.3,37.6,29.95,SSW,202,8.5,8.5,64,0.00,,,0.00,WUHU21623XXSP,2013-03-30 17:34:00,
2013-03-30 12:39:00,48.7,37.1,29.94,South,180,1.1,12.1,64,0.00,,,0.00,WUHU21623XXSP,2013-03-30 17:39:00,
2013-03-30 12:44:00,48.9,37.2,29.94,South,180,3.8,12.1,64,0.00,,,0.00,WUHU21623XXSP,2013-03-30 17:44:00,
2013-03-30 12:49:00,48.7,37.1,29.93,WSW,247,3.1,3.8,64,0.00,,,0.00,WUHU21623XXSP,2013-03-30 17:49:00,
2013-03-30 12:54:00,48.9,36.9,29.93,SSW,202,11.4,11.4,63,0.00,,,0.00,WUHU21623XXSP,2013-03-30 17:54:00,
2013-03-30 12:59:00,49.1,37.0,29.93,SW,225,14.3,14.3,63,0.00,,,0.00,WUHU21623XXSP,2013-03-30 17:59:00,
2013-03-30 13:04:00,49.8,37.7,29.93,West,270,4.0,14.3,63,0.00,,,0.00,WUHU21623XXSP,2013-03-30 18:04:00,
2013-03-30 13:09:00,49.8,37.3,29.92,SSW,202,10.5,10.5,62,0.00,,,0.00,WUHU21623XXSP,2013-03-30 18:09:00,
2013-03-30 13:14:00,50.2,37.6,29.92,South,180,6.5,10.5,62,0.00,,,0.00,WUHU21623XXSP,2013-03-30 18:14:00,
2013-03-30 13:19:00,50.4,37.4,29.92,South,180,10.7,13.0,61,0.00,,,0.00,WUHU21623XXSP,2013-03-30 18:19:00,
2013-03-30 13:24:00,50.4,37.4,29.92,South,180,4.7,13.0,61,0.00,,,0.00,WUHU21623XXSP,2013-03-30 18:24:00,
2013-03-30 13:29:00,50.4,37.4,29.92,SSW,202,6.5,9.2,61,0.00,,,0.00,WUHU21623XXSP,2013-03-30 18:29:00,
2013-03-30 13:34:00,50.5,37.6,29.92,South,180,9.6,13.2,61,0.00,,,0.00,WUHU21623XXSP,2013-03-30 18:34:00,
2013-03-30 13:39:00,50.2,37.4,29.92,SSE,157,9.4,13.2,61,0.00,,,0.00,WUHU21623XXSP,2013-03-30 18:39:00,
2013-03-30 13:44:00,50.4,37.4,29.92,SW,225,7.2,10.3,61,0.00,,,0.00,WUHU21623XXSP,2013-03-30 18:44:00,
2013-03-30 13:49:00,50.4,37.4,29.92,SSE,157,5.1,10.3,61,0.00,,,0.00,WUHU21623XXSP,2013-03-30 18:49:00,
2013-03-30 13:54:00,50.2,37.2,29.91,SSW,202,7.8,7.8,61,0.00,,,0.00,WUHU21623XXSP,2013-03-30 18:54:00,
2013-03-30 13:59:00,50.2,37.6,29.90,SSE,157,0.0,7.8,62,0.00,,,0.00,WUHU21623XXSP,2013-03-30 18:59:00,
2013-03-30 14:04:00,50.4,37.8,29.91,SSW,202,8.9,8.9,62,0.00,,,0.00,WUHU21623XXSP,2013-03-30 19:04:00,
2013-03-30 14:09:00,51.6,38.1,29.90,SSW,202,3.8,8.9,60,0.00,,,0.00,WUHU21623XXSP,2013-03-30 19:09:00,
2013-03-30 14:14:00,51.4,38.0,29.90,SSW,202,8.3,8.9,60,0.00,,,0.00,WUHU21623XXSP,2013-03-30 19:14:00,
2013-03-30 14:19:00,51.3,38.2,29.90,SSW,202,7.6,8.3,61,0.00,,,0.00,WUHU21623XXSP,2013-03-30 19:19:00,
2013-03-30 14:24:00,51.4,38.4,29.90,South,180,7.8,7.8,61,0.00,,,0.00,WUHU21623XXSP,2013-03-30 19:24:00,
2013-03-30 14:29:00,51.1,38.0,29.90,SW,225,7.4,7.8,61,0.00,,,0.00,WUHU21623XXSP,2013-03-30 19:29:00,
2013-03-30 14:34:00,50.7,38.1,29.90,SSW,202,7.8,7.8,62,0.00,,,0.00,WUHU21623XXSP,2013-03-30 19:34:00,
2013-03-30 14:39:00,50.4,37.8,29.89,South,180,5.8,7.8,62,0.00,,,0.00,WUHU21623XXSP,2013-03-30 19:39:00,
2013-03-30 14:44:00,50.4,37.6,29.89,South,180,5.8,6.0,63,0.00,,,0.00,WUHU21623XXSP,2013-03-30 19:44:00,
2013-03-30 14:49:00,50.2,38.2,29.88,WSW,247,2.9,5.8,63,0.00,,,0.00,WUHU21623XXSP,2013-03-30 19:49:00,
2013-03-30 14:54:00,49.8,38.1,29.88,SSW,202,6.0,11.6,64,0.00,,,0.00,WUHU21623XXSP,2013-03-30 19:54:00,
2013-03-30 14:59:00,49.6,37.9,29.88,SW,225,4.7,11.6,64,0.00,,,0.00,WUHU21623XXSP,2013-03-30 19:59:00,
2013-03-30 15:04:00,49.8,37.7,29.87,SW,225,11.4,11.4,63,0.00,,,0.00,WUHU21623XXSP,2013-03-30 20:04:00,
2013-03-30 15:09:00,49.8,37.7,29.88,SW,225,8.5,11.4,63,0.00,,,0.00,WUHU21623XXSP,2013-03-30 20:09:00,
2013-03-30 15:14:00,49.8,37.7,29.88,South,180,6.9,8.5,63,0.00,,,0.00,WUHU21623XXSP,2013-03-30 20:14:00,
2013-03-30 15:19:00,50.0,37.9,29.87,SW,225,8.7,8.7,63,0.00,,,0.00,WUHU21623XXSP,2013-03-30 20:19:00,
2013-03-30 15:24:00,49.6,37.5,29.87,WSW,247,13.2,13.2,63,0.00,,,0.00,WUHU21623XXSP,2013-03-30 20:24:00,
2013-03-30 15:29:00,49.6,37.5,29.87,SSW,202,6.9,13.2,63,0.00,,,0.00,WUHU21623XXSP,2013-03-30 20:29:00,
2013-03-30 15:34:00,49.3,37.2,29.86,WSW,247,5.6,10.1,63,0.00,,,0.00,WUHU21623XXSP,2013-03-30 20:34:00,
2013-03-30 15:39:00,49.6,37.4,29.86,WSW,247,4.7,12.8,63,0.00,,,0.00,WUHU21623XXSP,2013-03-30 20:39:00,
2013-03-30 15:44:00,49.3,37.4,29.87,SSW,202,4.0,12.8,63,0.00,,,0.00,WUHU21623XXSP,2013-03-30 20:44:00,
2013-03-30 15:49:00,49.3,37.6,29.86,SW,225,2.5,6.9,64,0.00,,,0.00,WUHU21623XXSP,2013-03-30 20:49:00,
2013-03-30 15:54:00,49.5,37.7,29.87,SSW,202,3.8,7.4,64,0.00,,,0.00,WUHU21623XXSP,2013-03-30 20:54:00,
2013-03-30 15:59:00,49.3,37.6,29.86,SW,225,9.4,9.4,64,0.00,,,0.00,WUHU21623XXSP,2013-03-30 20:59:00,
2013-03-30 16:04:00,49.1,37.8,29.86,SW,225,6.0,9.4,65,0.00,,,0.00,WUHU21623XXSP,2013-03-30 21:04:00,
2013-03-30 16:09:00,48.7,37.8,29.86,SW,225,11.9,11.9,66,0.00,,,0.00,WUHU21623XXSP,2013-03-30 21:09:00,
2013-03-30 16:14:00,48.9,38.0,29.86,WSW,247,6.5,13.9,66,0.00,,,0.00,WUHU21623XXSP,2013-03-30 21:14:00,
2013-03-30 16:19:00,48.7,37.8,29.86,SW,225,4.5,13.9,66,0.00,,,0.00,WUHU21623XXSP,2013-03-30 21:19:00,
2013-03-30 16:24:00,48.7,38.2,29.85,West,270,5.1,8.9,67,0.00,,,0.00,WUHU21623XXSP,2013-03-30 21:24:00,
2013-03-30 16:29:00,48.7,38.2,29.85,SSW,202,10.3,10.3,67,0.00,,,0.00,WUHU21623XXSP,2013-03-30 21:29:00,
2013-03-30 16:34:00,48.9,38.8,29.85,SSW,202,3.1,10.3,68,0.00,,,0.00,WUHU21623XXSP,2013-03-30 21:34:00,
2013-03-30 16:39:00,48.7,38.2,29.85,SW,225,3.8,10.3,68,0.00,,,0.00,WUHU21623XXSP,2013-03-30 21:39:00,
2013-03-30 16:44:00,48.4,38.6,29.84,SW,225,4.5,6.0,69,0.00,,,0.00,WUHU21623XXSP,2013-03-30 21:44:00,
2013-03-30 16:49:00,48.6,38.6,29.84,SSW,202,0.0,4.5,69,0.00,,,0.00,WUHU21623XXSP,2013-03-30 21:49:00,
2013-03-30 16:54:00,48.4,38.6,29.84,SSE,157,3.4,3.4,69,0.00,,,0.00,WUHU21623XXSP,2013-03-30 21:54:00,
2013-03-30 16:59:00,48.2,38.8,29.83,WSW,247,2.0,3.4,70,0.00,,,0.00,WUHU21623XXSP,2013-03-30 21:59:00,
2013-03-30 17:04:00,48.0,38.7,29.84,SW,225,0.0,2.0,70,0.00,,,0.00,WUHU21623XXSP,2013-03-30 22:04:00,
2013-03-30 17:09:00,47.8,38.5,29.83,SW,225,2.2,3.6,70,0.00,,,0.00,WUHU21623XXSP,2013-03-30 22:09:00,
2013-03-30 17:14:00,47.7,38.7,29.83,SSW,202,3.6,3.6,71,0.00,,,0.00,WUHU21623XXSP,2013-03-30 22:14:00,
2013-03-30 17:19:00,47.5,38.5,29.83,SSW,202,0.0,3.6,71,0.00,,,0.00,WUHU21623XXSP,2013-03-30 22:19:00,
2013-03-30 17:24:00,47.3,38.7,29.83,SW,225,0.0,2.5,72,0.00,,,0.00,WUHU21623XXSP,2013-03-30 22:24:00,
2013-03-30 17:29:00,47.3,38.7,29.83,South,180,2.5,4.0,72,0.00,,,0.00,WUHU21623XXSP,2013-03-30 22:29:00,
2013-03-30 17:34:00,47.5,38.9,29.83,SSE,157,2.7,4.0,72,0.00,,,0.00,WUHU21623XXSP,2013-03-30 22:34:00,
2013-03-30 17:39:00,47.5,38.9,29.83,SW,225,0.0,6.7,72,0.00,,,0.00,WUHU21623XXSP,2013-03-30 22:39:00,
2013-03-30 17:44:00,47.7,39.0,29.82,SSW,202,3.6,6.7,72,0.00,,,0.00,WUHU21623XXSP,2013-03-30 22:44:00,
2013-03-30 17:49:00,47.8,39.2,29.82,South,180,3.1,5.1,72,0.00,,,0.00,WUHU21623XXSP,2013-03-30 22:49:00,
2013-03-30 17:54:00,47.8,39.5,29.82,SW,225,4.5,5.1,73,0.00,,,0.00,WUHU21623XXSP,2013-03-30 22:54:00,
2013-03-30 17:59:00,47.8,39.5,29.82,WSW,247,5.1,5.1,73,0.00,,,0.00,WUHU21623XXSP,2013-03-30 22:59:00,
2013-03-30 18:04:00,47.5,39.2,29.82,SSW,202,1.3,5.1,73,0.00,,,0.00,WUHU21623XXSP,2013-03-30 23:04:00,
2013-03-30 18:09:00,47.3,39.4,29.82,SSW,202,5.8,5.8,74,0.00,,,0.00,WUHU21623XXSP,2013-03-30 23:09:00,
2013-03-30 18:14:00,47.5,39.6,29.82,SE,135,0.9,5.8,74,0.00,,,0.00,WUHU21623XXSP,2013-03-30 23:14:00,
2013-03-30 18:19:00,47.5,39.2,29.83,SW,225,5.1,7.2,73,0.00,,,0.00,WUHU21623XXSP,2013-03-30 23:19:00,
2013-03-30 18:24:00,47.7,39.4,29.82,SW,225,10.5,10.5,73,0.00,,,0.00,WUHU21623XXSP,2013-03-30 23:24:00,
2013-03-30 18:29:00,47.5,39.2,29.82,SSW,202,5.4,10.5,73,0.00,,,0.00,WUHU21623XXSP,2013-03-30 23:29:00,
2013-03-30 18:34:00,47.5,39.2,29.82,SSW,202,4.7,5.4,73,0.00,,,0.00,WUHU21623XXSP,2013-03-30 23:34:00,
2013-03-30 18:39:00,46.9,38.9,29.83,SW,225,6.7,6.7,73,0.00,,,0.00,WUHU21623XXSP,2013-03-30 23:39:00,
2013-03-30 18:44:00,46.2,38.4,29.83,West,270,5.4,6.7,74,0.00,,,0.00,WUHU21623XXSP,2013-03-30 23:44:00,
2013-03-30 18:49:00,46.0,38.6,29.83,West,270,4.3,5.4,75,0.00,,,0.00,WUHU21623XXSP,2013-03-30 23:49:00,
2013-03-30 18:54:00,45.5,38.0,29.82,SW,225,0.9,4.3,75,0.00,,,0.00,WUHU21623XXSP,2013-03-30 23:54:00,
2013-03-30 18:59:00,45.5,38.0,29.82,SW,225,0.9,1.6,75,0.00,,,0.00,WUHU21623XXSP,2013-03-30 23:59:00,
2013-03-30 19:04:00,45.1,38.0,29.82,WSW,247,4.3,4.3,76,0.00,,,0.00,WUHU21623XXSP,2013-03-31 00:04:00,
2013-03-30 19:09:00,45.3,38.2,29.82,SSW,202,1.6,8.1,76,0.00,,,0.00,WUHU21623XXSP,2013-03-31 00:09:00,
2013-03-30 19:14:00,45.1,38.0,29.82,SW,225,2.5,8.1,76,0.00,,,0.00,WUHU21623XXSP,2013-03-31 00:14:00,
2013-03-30 19:19:00,45.0,38.2,29.82,WSW,247,3.1,3.8,77,0.00,,,0.00,WUHU21623XXSP,2013-03-31 00:19:00,
2013-03-30 19:24:00,44.8,38.0,29.82,West,270,6.0,6.0,77,0.00,,,0.00,WUHU21623XXSP,2013-03-31 00:24:00,
2013-03-30 19:29:00,44.8,38.3,29.82,WSW,247,0.0,6.0,78,0.00,,,0.00,WUHU21623XXSP,2013-03-31 00:29:00,
2013-03-30 19:34:00,44.4,38.3,29.82,West,270,4.5,5.6,79,0.00,,,0.00,WUHU21623XXSP,2013-03-31 00:34:00,
2013-03-30 19:39:00,44.4,38.3,29.82,West,270,0.0,5.8,79,0.00,,,0.00,WUHU21623XXSP,2013-03-31 00:39:00,
2013-03-30 19:44:00,44.4,38.3,29.81,WSW,247,2.2,6.3,79,0.00,,,0.00,WUHU21623XXSP,2013-03-31 00:44:00,
2013-03-30 19:49:00,43.9,38.1,29.81,WNW,292,4.5,6.3,80,0.00,,,0.00,WUHU21623XXSP,2013-03-31 00:49:00,
2013-03-30 19:54:00,43.9,38.3,29.82,WSW,247,3.6,4.5,80,0.00,,,0.00,WUHU21623XXSP,2013-03-31 00:54:00,
2013-03-30 19:59:00,43.9,38.1,29.82,West,270,0.0,4.5,80,0.00,,,0.00,WUHU21623XXSP,2013-03-31 00:59:00,
2013-03-30 20:04:00,44.2,38.8,29.82,West,270,2.0,4.3,81,0.00,,,0.00,WUHU21623XXSP,2013-03-31 01:04:00,
2013-03-30 20:09:00,44.2,39.1,29.82,WSW,247,6.0,7.4,83,0.00,,,0.00,WUHU21623XXSP,2013-03-31 01:09:00,
2013-03-30 20:14:00,43.3,38.8,29.82,SW,225,4.0,14.5,84,0.00,,,0.00,WUHU21623XXSP,2013-03-31 01:14:00,
2013-03-30 20:19:00,43.0,39.1,29.82,WSW,247,5.6,14.5,86,0.00,,,0.00,WUHU21623XXSP,2013-03-31 01:19:00,
2013-03-30 20:24:00,42.4,38.8,29.81,WSW,247,4.5,6.0,87,0.00,,,0.00,WUHU21623XXSP,2013-03-31 01:24:00,
2013-03-30 20:29:00,42.1,38.5,29.81,WSW,247,6.0,6.0,87,0.00,,,0.00,WUHU21623XXSP,2013-03-31 01:29:00,
2013-03-30 20:34:00,42.4,39.1,29.81,SW,225,3.4,6.0,88,0.00,,,0.00,WUHU21623XXSP,2013-03-31 01:34:00,
2013-03-30 20:39:00,42.4,39.1,29.81,WSW,247,0.0,8.3,88,0.00,,,0.00,WUHU21623XXSP,2013-03-31 01:39:00,
2013-03-30 20:44:00,42.4,39.1,29.81,SW,225,2.5,8.3,88,0.00,,,0.00,WUHU21623XXSP,2013-03-31 01:44:00,
2013-03-30 20:49:00,42.4,39.1,29.80,West,270,0.0,2.5,88,0.00,,,0.00,WUHU21623XXSP,2013-03-31 01:49:00,
2013-03-30 20:54:00,41.9,38.6,29.80,WSW,247,0.0,0.0,88,0.00,,,0.00,WUHU21623XXSP,2013-03-31 01:54:00,
2013-03-30 20:59:00,41.7,38.4,29.80,West,270,0.0,0.0,88,0.00,,,0.00,WUHU21623XXSP,2013-03-31 01:59:00,
2013-03-30 21:04:00,41.5,38.2,29.80,WSW,247,0.0,2.5,88,0.00,,,0.00,WUHU21623XXSP,2013-03-31 02:04:00,
2013-03-30 21:09:00,41.5,38.2,29.80,WSW,247,3.8,3.8,88,0.00,,,0.00,WUHU21623XXSP,2013-03-31 02:09:00,
2013-03-30 21:14:00,41.4,38.5,29.80,West,270,0.0,3.8,89,0.00,,,0.00,WUHU21623XXSP,2013-03-31 02:14:00,
2013-03-30 21:19:00,41.5,38.5,29.80,WSW,247,4.3,4.3,89,0.00,,,0.00,WUHU21623XXSP,2013-03-31 02:19:00,
2013-03-30 21:24:00,42.4,39.4,29.80,WSW,247,11.4,12.1,89,0.00,,,0.00,WUHU21623XXSP,2013-03-31 02:24:00,
2013-03-30 21:29:00,42.6,39.6,29.80,WSW,247,8.9,12.1,89,0.00,,,0.00,WUHU21623XXSP,2013-03-31 02:29:00,
2013-03-30 21:34:00,42.4,39.4,29.80,West,270,0.0,10.3,89,0.00,,,0.00,WUHU21623XXSP,2013-03-31 02:34:00,
2013-03-30 21:39:00,42.3,39.3,29.80,SW,225,6.5,6.5,89,0.00,,,0.00,WUHU21623XXSP,2013-03-31 02:39:00,
2013-03-30 21:44:00,41.9,38.9,29.80,WSW,247,8.1,8.1,89,0.00,,,0.00,WUHU21623XXSP,2013-03-31 02:44:00,
2013-03-30 21:49:00,41.7,39.0,29.80,SW,225,9.4,9.4,90,0.00,,,0.00,WUHU21623XXSP,2013-03-31 02:49:00,
2013-03-30 21:54:00,41.5,38.8,29.80,WSW,247,5.6,9.4,90,0.00,,,0.00,WUHU21623XXSP,2013-03-31 02:54:00,
2013-03-30 21:59:00,41.5,38.8,29.80,West,270,5.8,5.8,90,0.00,,,0.00,WUHU21623XXSP,2013-03-31 02:59:00,
2013-03-30 22:04:00,41.7,39.0,29.80,SW,225,6.9,6.9,90,0.00,,,0.00,WUHU21623XXSP,2013-03-31 03:04:00,
2013-03-30 22:09:00,41.5,39.1,29.79,WSW,247,2.9,6.9,91,0.00,,,0.00,WUHU21623XXSP,2013-03-31 03:09:00,
2013-03-30 22:14:00,41.5,39.1,29.80,WSW,247,4.5,4.5,91,0.00,,,0.00,WUHU21623XXSP,2013-03-31 03:14:00,
2013-03-30 22:19:00,41.2,38.8,29.80,WSW,247,3.1,4.5,91,0.00,,,0.00,WUHU21623XXSP,2013-03-31 03:19:00,
2013-03-30 22:24:00,41.4,38.9,29.80,West,270,4.5,6.9,91,0.00,,,0.00,WUHU21623XXSP,2013-03-31 03:24:00,
2013-03-30 22:29:00,41.5,39.1,29.80,WSW,247,4.0,6.9,91,0.00,,,0.00,WUHU21623XXSP,2013-03-31 03:29:00,
2013-03-30 22:34:00,41.2,38.8,29.80,West,270,4.0,6.7,91,0.00,,,0.00,WUHU21623XXSP,2013-03-31 03:34:00,
2013-03-30 22:39:00,41.0,38.6,29.80,West,270,3.8,4.0,91,0.00,,,0.00,WUHU21623XXSP,2013-03-31 03:39:00,
2013-03-30 22:44:00,41.0,38.6,29.79,WSW,247,2.0,4.9,91,0.00,,,0.00,WUHU21623XXSP,2013-03-31 03:44:00,
2013-03-30 22:49:00,41.2,38.8,29.79,WSW,247,4.0,4.9,91,0.00,,,0.00,WUHU21623XXSP,2013-03-31 03:49:00,
2013-03-30 22:54:00,41.2,39.0,29.79,West,270,8.3,8.3,92,0.00,,,0.00,WUHU21623XXSP,2013-03-31 03:54:00,
2013-03-30 22:59:00,40.8,38.4,29.79,WSW,247,3.1,8.3,91,0.00,,,0.00,WUHU21623XXSP,2013-03-31 03:59:00,
2013-03-30 23:00:00,40.8,38.4,29.79,WSW,247,3.1,8.3,91,0.00,,,0.00,WUHU21623XXSP,2013-03-31 04:00:00,
2013-03-30 23:05:00,40.8,38.7,29.79,West,270,4.3,8.3,92,0.00,,,0.00,WUHU21623XXSP,2013-03-31 04:05:00,
2013-03-30 23:10:00,40.6,38.5,29.78,West,270,2.9,4.5,92,0.00,,,0.00,WUHU21623XXSP,2013-03-31 04:10:00,
2013-03-30 23:15:00,40.6,38.5,29.78,WSW,247,3.1,4.5,92,0.00,,,0.00,WUHU21623XXSP,2013-03-31 04:15:00,
2013-03-30 23:20:00,40.5,38.3,29.79,WSW,247,1.8,3.1,92,0.00,,,0.00,WUHU21623XXSP,2013-03-31 04:20:00,
2013-03-30 23:25:00,40.8,38.7,29.78,West,270,0.0,1.8,92,0.00,,,0.00,WUHU21623XXSP,2013-03-31 04:25:00,
2013-03-30 23:30:00,41.0,38.8,29.78,West,270,0.0,0.0,92,0.00,,,0.00,WUHU21623XXSP,2013-03-31 04:30:00,
2013-03-30 23:35:00,41.0,38.8,29.78,West,270,0.0,0.0,92,0.00,,,0.00,WUHU21623XXSP,2013-03-31 04:35:00,
2013-03-30 23:40:00,40.8,38.7,29.78,West,270,0.0,0.0,92,0.00,,,0.00,WUHU21623XXSP,2013-03-31 04:40:00,
2013-03-30 23:45:00,40.8,38.7,29.78,West,270,3.8,3.8,92,0.00,,,0.00,WUHU21623XXSP,2013-03-31 04:45:00,
2013-03-30 23:50:00,40.8,38.7,29.78,WNW,292,4.3,4.3,92,0.00,,,0.00,WUHU21623XXSP,2013-03-31 04:50:00,
2013-03-30 23:55:00,40.8,38.7,29.78,West,270,1.6,4.3,92,0.00,,,0.00,WUHU21623XXSP,2013-03-31 04:55:00,